createdAt,value
2022-12-14T00:01:25.468Z,10.80
2022-12-14T00:03:53.370Z,11.25
2022-12-14T00:06:25.476Z,10.38
2022-12-14T00:08:54.250Z,10.80
2022-12-14T00:11:25.304Z,11.00
2022-12-14T00:14:00.030Z,11.45
2022-12-14T00:16:29.257Z,11.00
2022-12-14T00:18:57.620Z,10.73
2022-12-14T00:21:25.713Z,10.65
2022-12-14T00:23:53.739Z,10.93
2022-12-14T00:26:22.793Z,11.38
2022-12-14T00:28:52.108Z,10.57
2022-12-14T00:31:20.364Z,10.93
2022-12-14T00:33:48.129Z,11.27
2022-12-14T00:36:15.867Z,11.90
2022-12-14T00:38:43.553Z,10.77
2022-12-14T00:41:11.642Z,11.63
2022-12-14T00:43:39.195Z,11.82
2022-12-14T00:46:06.900Z,12.40
2022-12-14T00:48:34.524Z,11.20
2022-12-14T00:51:02.073Z,11.75
2022-12-14T00:53:30.377Z,11.02
2022-12-14T00:55:57.927Z,10.80
2022-12-14T00:58:27.195Z,11.68
2022-12-14T01:01:05.318Z,11.68
2022-12-14T01:03:33.571Z,12.10
2022-12-14T01:06:01.441Z,11.38
2022-12-14T01:08:35.529Z,11.35
2022-12-14T01:11:04.783Z,11.20
2022-12-14T01:13:32.367Z,12.05
2022-12-14T01:16:06.465Z,12.55
2022-12-14T01:18:35.113Z,11.50
2022-12-14T01:21:14.920Z,11.40
2022-12-14T01:23:43.861Z,11.68
2022-12-14T01:26:12.082Z,11.20
2022-12-14T01:28:39.688Z,11.77
2022-12-14T01:31:08.628Z,11.63
2022-12-14T01:33:39.462Z,11.48
2022-12-14T01:36:08.424Z,12.60
2022-12-14T01:38:36.086Z,12.40
2022-12-14T01:41:04.323Z,13.27
2022-12-14T01:43:51.520Z,12.30
2022-12-14T01:46:22.674Z,11.38
2022-12-14T01:48:52.174Z,11.95
2022-12-14T01:51:19.920Z,12.38
2022-12-14T01:53:50.175Z,12.23
2022-12-14T01:56:18.541Z,11.52
2022-12-14T01:58:46.478Z,11.38
2022-12-14T02:01:14.913Z,12.60
2022-12-14T02:03:44.705Z,12.35
2022-12-14T02:06:15.252Z,12.25
2022-12-14T02:08:44.456Z,12.23
2022-12-14T02:11:12.740Z,12.05
2022-12-14T02:13:42.318Z,12.35
2022-12-14T02:16:10.499Z,11.73
2022-12-14T02:18:41.073Z,12.05
2022-12-14T02:21:11.336Z,11.70
2022-12-14T02:23:54.720Z,12.05
2022-12-14T02:26:25.208Z,11.98
2022-12-14T02:29:07.926Z,12.00
2022-12-14T02:31:48.893Z,11.93
2022-12-14T02:34:20.103Z,12.13
2022-12-14T02:37:02.943Z,12.02
2022-12-14T02:39:32.125Z,11.13
2022-12-14T02:42:06.596Z,11.70
2022-12-14T02:44:40.666Z,12.77
2022-12-14T02:47:27.440Z,11.38
2022-12-14T02:50:04.954Z,12.85
2022-12-14T02:52:47.949Z,11.82
2022-12-14T02:55:19.904Z,12.63
2022-12-14T02:58:01.691Z,12.38
2022-12-14T03:00:32.435Z,11.80
2022-12-14T03:03:01.052Z,12.20
2022-12-14T03:05:29.137Z,12.18
2022-12-14T03:08:28.867Z,12.95
2022-12-14T03:11:01.971Z,11.80
2022-12-14T03:13:38.065Z,12.93
2022-12-14T03:16:10.792Z,12.57
2022-12-14T03:18:43.945Z,12.65
2022-12-14T03:21:14.433Z,12.23
2022-12-14T03:23:46.783Z,12.52
2022-12-14T03:26:42.889Z,11.80
2022-12-14T03:29:19.392Z,12.32
2022-12-14T03:31:53.428Z,11.75
2022-12-14T03:34:24.331Z,12.50
2022-12-14T03:37:16.101Z,12.82
2022-12-14T03:39:47.141Z,12.10
2022-12-14T03:42:18.037Z,12.75
2022-12-14T03:44:49.271Z,12.80
2022-12-14T03:50:06.734Z,11.88
2022-12-14T03:52:38.642Z,13.00
2022-12-14T03:55:15.503Z,13.23
2022-12-14T03:57:49.869Z,12.88
2022-12-14T04:00:19.739Z,12.25
2022-12-14T04:02:54.092Z,12.35
2022-12-14T04:05:47.067Z,13.60
2022-12-14T04:08:29.154Z,12.48
2022-12-14T04:11:17.437Z,12.60
2022-12-14T04:14:16.668Z,13.07
2022-12-14T04:17:04.760Z,12.38
2022-12-14T04:19:39.052Z,13.02
2022-12-14T04:22:14.780Z,12.40
2022-12-14T04:25:21.539Z,12.93
2022-12-14T04:27:55.814Z,12.55
2022-12-14T04:30:26.497Z,11.80
2022-12-14T04:33:27.393Z,13.15
2022-12-14T04:35:57.177Z,12.93
2022-12-14T04:38:32.645Z,12.80
2022-12-14T04:41:07.244Z,12.65
2022-12-14T04:43:37.699Z,12.05
2022-12-14T04:46:10.838Z,12.95
2022-12-14T04:48:41.516Z,13.07
2022-12-14T04:51:28.360Z,12.13
2022-12-14T04:53:59.911Z,13.30
2022-12-14T04:56:31.281Z,12.48
2022-12-14T04:59:02.246Z,13.90
2022-12-14T05:01:56.808Z,13.38
2022-12-14T05:04:33.799Z,12.90
2022-12-14T05:07:28.100Z,12.65
2022-12-14T05:09:58.736Z,12.73
2022-12-14T05:12:35.880Z,13.68
2022-12-14T05:15:09.409Z,12.82
2022-12-14T05:17:44.445Z,12.52
2022-12-14T05:20:17.904Z,13.63
2022-12-14T05:22:48.366Z,13.20
2022-12-14T05:25:16.668Z,13.25
2022-12-14T05:27:47.124Z,13.55
2022-12-14T05:30:17.671Z,13.32
2022-12-14T05:32:47.749Z,13.93
2022-12-14T05:35:15.842Z,13.32
2022-12-14T05:37:46.321Z,14.38
2022-12-14T05:40:17.256Z,13.27
2022-12-14T05:42:55.705Z,13.85
2022-12-14T05:45:26.307Z,13.15
2022-12-14T05:47:59.736Z,13.18
2022-12-14T05:50:27.727Z,13.80
2022-12-14T05:52:55.851Z,12.95
2022-12-14T05:55:23.909Z,13.18
2022-12-14T05:57:52.165Z,13.32
2022-12-14T06:00:22.600Z,13.60
2022-12-14T06:02:51.444Z,12.90
2022-12-14T06:05:29.106Z,13.65
2022-12-14T06:07:59.826Z,12.85
2022-12-14T06:10:28.106Z,13.57
2022-12-14T06:12:57.775Z,13.13
2022-12-14T06:15:33.630Z,13.50
2022-12-14T06:18:02.038Z,13.10
2022-12-14T06:20:32.293Z,13.93
2022-12-14T06:23:00.694Z,13.48
2022-12-14T06:25:28.752Z,14.15
2022-12-14T06:27:59.008Z,12.43
2022-12-14T06:30:32.178Z,13.35
2022-12-14T06:33:02.323Z,14.05
2022-12-14T06:35:32.460Z,13.65
2022-12-14T06:38:00.444Z,13.82
2022-12-14T06:40:28.397Z,14.27
2022-12-14T06:43:00.607Z,13.68
2022-12-14T06:45:29.370Z,13.98
2022-12-14T06:48:02.697Z,14.38
2022-12-14T06:50:30.973Z,14.80
2022-12-14T06:52:59.176Z,13.95
2022-12-14T06:55:27.470Z,14.15
2022-12-14T06:57:55.804Z,14.00
2022-12-14T07:00:27.380Z,14.55
2022-12-14T07:05:23.344Z,14.82
2022-12-14T07:07:51.110Z,15.10
2022-12-14T07:10:19.048Z,14.73
2022-12-14T07:12:47.191Z,14.93
2022-12-14T07:15:15.285Z,15.65
2022-12-14T07:17:43.115Z,15.70
2022-12-14T07:20:11.249Z,15.82
2022-12-14T07:22:41.787Z,15.30
2022-12-14T07:25:09.830Z,15.40
2022-12-14T07:27:37.886Z,16.70
2022-12-14T07:30:06.212Z,15.80
2022-12-14T07:32:34.260Z,16.30
2022-12-14T07:35:09.447Z,15.65
2022-12-14T07:37:41.128Z,15.70
2022-12-14T07:40:09.550Z,15.07
2022-12-14T07:42:43.273Z,15.55
2022-12-14T07:45:15.059Z,16.15
2022-12-14T07:47:43.167Z,16.00
2022-12-14T07:50:11.337Z,16.45
2022-12-14T07:52:39.307Z,14.82
2022-12-14T07:55:09.587Z,16.30
2022-12-14T07:57:37.551Z,15.43
2022-12-14T08:00:08.158Z,17.40
2022-12-14T08:02:41.651Z,16.52
2022-12-14T08:05:12.610Z,15.95
2022-12-14T08:07:41.045Z,15.68
2022-12-14T08:10:11.425Z,15.40
2022-12-14T08:12:41.540Z,17.45
2022-12-14T08:15:09.966Z,16.67
2022-12-14T08:17:39.844Z,16.67
2022-12-14T08:20:08.152Z,17.00
2022-12-14T08:22:36.080Z,16.75
2022-12-14T08:25:04.163Z,16.08
2022-12-14T08:27:35.301Z,15.07
2022-12-14T08:30:05.962Z,16.20
2022-12-14T08:32:34.564Z,17.20
2022-12-14T08:35:02.794Z,15.30
2022-12-14T08:37:32.942Z,15.82
2022-12-14T08:40:03.557Z,16.10
2022-12-14T08:42:33.584Z,15.63
2022-12-14T08:45:01.560Z,17.27
2022-12-14T08:47:29.904Z,15.93
2022-12-14T08:49:59.032Z,16.23
2022-12-14T08:52:27.874Z,16.45
2022-12-14T08:54:55.862Z,15.30
2022-12-14T08:57:23.737Z,15.13
2022-12-14T09:00:01.144Z,17.08
2022-12-14T09:02:30.189Z,17.30
2022-12-14T09:05:01.298Z,15.75
2022-12-14T09:07:32.320Z,16.85
2022-12-14T09:10:00.396Z,17.73
2022-12-14T09:12:28.665Z,20.45
2022-12-14T09:14:56.204Z,16.27
2022-12-14T09:17:23.745Z,15.25
2022-12-14T09:19:51.300Z,13.18
2022-12-14T09:22:19.168Z,16.73
2022-12-14T09:24:46.748Z,16.45
2022-12-14T09:27:14.270Z,16.00
2022-12-14T09:29:41.877Z,16.42
2022-12-14T09:32:09.464Z,16.15
2022-12-14T09:34:36.996Z,15.30
2022-12-14T09:37:07.263Z,16.40
2022-12-14T09:39:35.912Z,14.43
2022-12-14T09:42:22.354Z,15.82
2022-12-14T09:45:04.049Z,15.63
2022-12-14T09:47:41.460Z,15.85
2022-12-14T09:50:15.287Z,17.15
2022-12-14T09:52:47.991Z,15.85
2022-12-14T09:55:32.289Z,17.95
2022-12-14T09:58:07.321Z,16.42
2022-12-14T10:00:48.121Z,15.90
2022-12-14T10:03:27.315Z,16.48
2022-12-14T10:06:15.784Z,16.60
2022-12-14T10:08:52.697Z,16.27
2022-12-14T10:11:37.439Z,15.55
2022-12-14T10:14:04.979Z,16.58
2022-12-14T10:16:35.595Z,16.40
2022-12-14T10:19:16.705Z,12.40
2022-12-14T10:22:01.351Z,16.60
2022-12-14T10:24:35.229Z,16.30
2022-12-14T10:27:03.817Z,15.18
2022-12-14T10:29:57.681Z,16.67
2022-12-14T10:32:34.795Z,16.65
2022-12-14T10:35:16.272Z,14.65
2022-12-14T10:37:50.593Z,15.48
2022-12-14T10:40:31.147Z,17.00
2022-12-14T10:43:03.918Z,16.45
2022-12-14T10:45:41.781Z,16.52
2022-12-14T10:48:30.574Z,14.63
2022-12-14T10:51:03.517Z,15.80
2022-12-14T10:53:40.968Z,16.20
2022-12-14T10:56:13.760Z,16.20
2022-12-14T10:58:41.380Z,15.55
2022-12-14T11:01:12.863Z,16.33
2022-12-14T11:03:40.917Z,16.17
2022-12-14T11:06:14.594Z,16.13
2022-12-14T11:08:48.228Z,16.40
2022-12-14T11:11:19.148Z,16.13
2022-12-14T11:13:54.514Z,16.80
2022-12-14T11:16:33.579Z,16.10
2022-12-14T11:19:04.675Z,15.98
2022-12-14T11:21:37.760Z,16.75
2022-12-14T11:24:06.193Z,17.00
2022-12-14T11:26:41.726Z,17.45
2022-12-14T11:29:17.789Z,16.17
2022-12-14T11:31:52.535Z,18.27
2022-12-14T11:34:22.426Z,16.50
2022-12-14T11:36:50.957Z,17.08
2022-12-14T11:39:18.770Z,15.68
2022-12-14T11:41:50.628Z,16.45
2022-12-14T11:44:23.304Z,16.30
2022-12-14T11:47:00.292Z,16.58
2022-12-14T11:49:44.132Z,15.13
2022-12-14T11:52:12.062Z,16.52
2022-12-14T11:54:40.750Z,16.67
2022-12-14T11:57:10.446Z,15.68
2022-12-14T11:59:39.837Z,15.75
2022-12-14T12:02:22.841Z,15.27
2022-12-14T12:04:53.678Z,16.63
2022-12-14T12:07:32.307Z,16.53
2022-12-14T12:10:21.370Z,16.58
2022-12-14T12:12:54.194Z,15.70
2022-12-14T12:15:35.511Z,16.02
2022-12-14T12:18:22.527Z,16.00
2022-12-14T12:21:16.604Z,17.25
2022-12-14T12:23:44.743Z,16.45
2022-12-14T12:26:15.054Z,16.13
2022-12-14T12:28:46.042Z,16.23
2022-12-14T12:31:17.530Z,16.60
2022-12-14T12:33:50.186Z,16.92
2022-12-14T12:36:23.798Z,16.48
2022-12-14T12:38:54.956Z,17.35
2022-12-14T12:41:25.445Z,16.05
2022-12-14T12:43:55.529Z,17.55
2022-12-14T12:46:26.841Z,16.83
2022-12-14T12:48:58.529Z,17.13
2022-12-14T12:51:28.050Z,16.05
2022-12-14T12:53:59.521Z,16.85
2022-12-14T12:56:38.367Z,15.93
2022-12-14T12:59:06.545Z,17.48
2022-12-14T13:01:39.643Z,17.02
2022-12-14T13:04:10.309Z,15.57
2022-12-14T13:06:44.328Z,16.95
2022-12-14T13:09:20.799Z,16.95
2022-12-14T13:11:48.433Z,16.98
2022-12-14T13:14:34.447Z,16.63
2022-12-14T13:17:04.575Z,18.48
2022-12-14T13:19:50.253Z,18.52
2022-12-14T13:22:23.091Z,18.38
2022-12-14T13:24:56.995Z,17.80
2022-12-14T13:27:34.948Z,18.40
2022-12-14T13:30:19.115Z,19.42
2022-12-14T13:32:51.617Z,19.42
2022-12-14T13:35:42.716Z,18.35
2022-12-14T13:38:23.507Z,18.30
2022-12-14T13:41:06.152Z,16.80
2022-12-14T13:43:52.687Z,17.52
2022-12-14T13:46:25.021Z,16.92
2022-12-14T13:48:54.183Z,17.02
2022-12-14T13:51:39.761Z,17.00
2022-12-14T13:54:18.868Z,15.80
2022-12-14T13:56:46.437Z,16.65
2022-12-14T13:59:25.314Z,17.15
2022-12-14T14:01:55.207Z,16.33
2022-12-14T14:04:24.889Z,16.00
2022-12-14T14:06:53.664Z,16.55
2022-12-14T14:09:24.599Z,16.20
2022-12-14T14:12:02.777Z,15.95
2022-12-14T14:14:39.417Z,16.73
2022-12-14T14:17:27.298Z,17.23
2022-12-14T14:19:56.073Z,17.17
2022-12-14T14:22:25.791Z,17.10
2022-12-14T14:24:58.664Z,17.83
2022-12-14T14:27:28.603Z,18.85
2022-12-14T14:29:56.377Z,18.30
2022-12-14T14:32:26.972Z,18.50
2022-12-14T14:34:54.766Z,19.00
2022-12-14T14:37:22.765Z,18.27
2022-12-14T14:40:21.687Z,18.92
2022-12-14T14:42:58.190Z,21.27
2022-12-14T14:45:34.441Z,26.23
2022-12-14T14:48:03.489Z,27.10
2022-12-14T14:50:35.457Z,26.75
2022-12-14T14:53:14.353Z,20.92
2022-12-14T14:55:53.977Z,17.83
2022-12-14T14:58:25.498Z,19.70
2022-12-14T15:00:59.344Z,18.27
2022-12-14T15:03:41.959Z,19.75
2022-12-14T15:06:17.148Z,18.77
2022-12-14T15:08:47.193Z,19.00
2022-12-14T15:11:23.496Z,20.02
2022-12-14T15:13:51.037Z,19.63
2022-12-14T15:16:23.030Z,20.55
2022-12-14T15:18:50.668Z,20.60
2022-12-14T15:21:19.043Z,20.02
2022-12-14T15:23:50.041Z,20.38
2022-12-14T15:26:23.583Z,20.33
2022-12-14T15:28:52.597Z,20.35
2022-12-14T15:31:27.664Z,20.25
2022-12-14T15:33:55.565Z,21.80
2022-12-14T15:36:25.700Z,21.42
2022-12-14T15:38:54.550Z,20.67
2022-12-14T15:41:23.462Z,22.38
2022-12-14T15:43:56.492Z,20.58
2022-12-14T15:46:30.044Z,20.75
2022-12-14T15:49:01.646Z,22.60
2022-12-14T15:51:32.037Z,21.58
2022-12-14T15:54:00.577Z,21.90
2022-12-14T15:56:29.980Z,20.98
2022-12-14T15:59:01.546Z,21.15
2022-12-14T16:01:35.720Z,25.95
2022-12-14T16:04:08.306Z,24.20
2022-12-14T16:06:41.119Z,24.15
2022-12-14T16:09:11.720Z,23.08
2022-12-14T16:11:41.754Z,22.85
2022-12-14T16:14:26.112Z,24.52
2022-12-14T16:16:54.075Z,23.80
2022-12-14T16:19:28.167Z,21.98
2022-12-14T16:22:23.100Z,23.35
2022-12-14T16:24:59.829Z,22.23
2022-12-14T16:27:27.951Z,22.42
2022-12-14T16:30:16.961Z,24.27
2022-12-14T16:32:49.780Z,23.40
2022-12-14T16:35:22.948Z,24.75
2022-12-14T16:37:51.912Z,22.52
2022-12-14T16:40:45.720Z,22.70
2022-12-14T16:43:28.354Z,23.65
2022-12-14T16:45:56.274Z,22.90
2022-12-14T16:48:24.615Z,22.67
2022-12-14T16:50:58.095Z,21.80
2022-12-14T16:53:29.666Z,23.10
2022-12-14T16:56:08.003Z,23.38
2022-12-14T16:58:36.696Z,22.98
2022-12-14T17:01:06.048Z,22.30
2022-12-14T17:03:34.606Z,22.60
2022-12-14T17:06:03.984Z,23.25
2022-12-14T17:08:33.493Z,24.65
2022-12-14T17:11:02.169Z,22.45
2022-12-14T17:13:30.226Z,20.98
2022-12-14T17:16:02.671Z,21.45
2022-12-14T17:18:40.772Z,22.88
2022-12-14T17:21:09.364Z,22.70
2022-12-14T17:23:41.117Z,22.92
2022-12-14T17:28:36.082Z,21.75
2022-12-14T17:31:03.882Z,22.35
2022-12-14T17:33:32.184Z,22.27
2022-12-14T17:36:00.072Z,21.90
2022-12-14T17:38:27.690Z,21.50
2022-12-14T17:40:56.008Z,21.52
2022-12-14T17:43:25.402Z,21.98
2022-12-14T17:45:53.007Z,20.95
2022-12-14T17:48:21.016Z,21.75
2022-12-14T17:50:50.410Z,21.40
2022-12-14T17:53:20.718Z,21.70
2022-12-14T17:55:48.366Z,22.92
2022-12-14T17:58:16.665Z,22.27
2022-12-14T18:01:03.112Z,22.73
2022-12-14T18:03:37.639Z,21.73
2022-12-14T18:06:05.605Z,23.20
2022-12-14T18:08:33.224Z,22.52
2022-12-14T18:11:02.198Z,22.20
2022-12-14T18:13:34.302Z,21.77
2022-12-14T18:16:02.133Z,21.90
2022-12-14T18:18:29.857Z,22.90
2022-12-14T18:20:58.741Z,21.13
2022-12-14T18:23:26.306Z,21.55
2022-12-14T18:25:54.899Z,22.15
2022-12-14T18:28:22.452Z,22.42
2022-12-14T18:30:55.294Z,21.88
2022-12-14T18:33:24.624Z,22.75
2022-12-14T18:35:52.996Z,21.70
2022-12-14T18:38:20.628Z,21.58
2022-12-14T18:40:50.218Z,21.75
2022-12-14T18:43:21.256Z,23.15
2022-12-14T18:45:48.857Z,23.27
2022-12-14T18:48:16.423Z,24.25
2022-12-14T18:50:43.939Z,23.35
2022-12-14T18:53:15.706Z,21.80
2022-12-14T18:58:15.489Z,19.33
2022-12-14T19:00:43.336Z,20.70
2022-12-14T19:03:11.029Z,20.30
2022-12-14T19:05:38.641Z,19.38
2022-12-14T19:08:07.461Z,20.10
2022-12-14T19:10:35.126Z,19.67
2022-12-14T19:13:02.697Z,18.58
2022-12-14T19:15:31.930Z,18.05
2022-12-14T19:17:59.892Z,18.25
2022-12-14T19:20:28.304Z,19.23
2022-12-14T19:22:56.337Z,18.42
2022-12-14T19:25:24.546Z,18.10
2022-12-14T19:30:40.452Z,18.25
2022-12-14T19:33:08.030Z,17.75
2022-12-14T19:35:35.554Z,18.17
2022-12-14T19:38:03.121Z,18.23
2022-12-14T19:40:30.740Z,18.25
2022-12-14T19:42:59.127Z,17.40
2022-12-14T19:45:26.652Z,16.55
2022-12-14T19:47:54.176Z,16.75
2022-12-14T19:50:21.719Z,17.88
2022-12-14T19:52:52.291Z,17.63
2022-12-14T19:55:19.855Z,18.52
2022-12-14T19:57:47.376Z,16.50
2022-12-14T20:00:14.984Z,17.08
2022-12-14T20:02:42.699Z,15.75
2022-12-14T20:05:10.494Z,15.23
2022-12-14T20:07:43.576Z,15.85
2022-12-14T20:10:11.536Z,18.75
2022-12-14T20:12:39.132Z,15.88
2022-12-14T20:15:06.829Z,15.10
2022-12-14T20:17:34.484Z,15.88
2022-12-14T20:20:02.056Z,15.30
2022-12-14T20:22:29.591Z,15.93
2022-12-14T20:24:57.149Z,14.95
2022-12-14T20:27:24.751Z,15.23
2022-12-14T20:29:52.316Z,15.02
2022-12-14T20:32:19.901Z,13.93
2022-12-14T20:34:47.417Z,14.90
2022-12-14T20:37:14.925Z,14.35
2022-12-14T20:39:42.470Z,14.52
2022-12-14T20:42:10.113Z,15.30
2022-12-14T20:44:37.831Z,14.50
2022-12-14T20:47:05.509Z,12.90
2022-12-14T20:49:33.158Z,13.18
2022-12-14T20:52:00.764Z,12.95
2022-12-14T20:54:29.246Z,12.82
2022-12-14T20:56:56.965Z,12.63
2022-12-14T20:59:25.026Z,12.77
2022-12-14T21:01:56.236Z,13.77
2022-12-14T21:06:52.535Z,12.80
2022-12-14T21:09:20.114Z,13.48
2022-12-14T21:12:07.607Z,12.48
2022-12-14T21:14:36.398Z,13.02
2022-12-14T21:17:04.446Z,13.52
2022-12-14T21:19:32.431Z,13.10
2022-12-14T21:22:00.039Z,13.50
2022-12-14T21:27:20.148Z,13.27
2022-12-14T21:29:48.122Z,13.18
2022-12-14T21:32:16.749Z,12.27
2022-12-14T21:34:44.560Z,12.32
2022-12-14T21:37:12.392Z,12.02
2022-12-14T21:39:39.930Z,12.35
2022-12-14T21:42:10.246Z,11.65
2022-12-14T21:44:38.224Z,12.48
2022-12-14T21:47:07.033Z,12.23
2022-12-14T21:49:36.347Z,12.50
2022-12-14T21:52:07.333Z,12.50
2022-12-14T21:54:35.322Z,12.60
2022-12-14T21:57:21.447Z,12.88
2022-12-14T21:59:49.029Z,14.20
2022-12-14T22:02:21.413Z,13.32
2022-12-14T22:04:49.143Z,12.93
2022-12-14T22:07:17.871Z,12.60
2022-12-14T22:09:49.650Z,13.35
2022-12-14T22:12:18.442Z,14.05
2022-12-14T22:14:45.977Z,13.95
2022-12-14T22:17:14.629Z,13.93
2022-12-14T22:19:42.407Z,15.02
2022-12-14T22:22:16.925Z,15.02
2022-12-14T22:24:45.066Z,13.15
2022-12-14T22:27:13.220Z,13.45
2022-12-14T22:29:40.730Z,13.40
2022-12-14T22:32:08.669Z,13.77
2022-12-14T22:34:36.713Z,14.73
2022-12-14T22:37:04.217Z,13.80
2022-12-14T22:39:31.714Z,14.02
2022-12-14T22:41:59.655Z,13.82
2022-12-14T22:44:27.273Z,13.70
2022-12-14T22:46:54.851Z,14.55
2022-12-14T22:49:22.384Z,15.05
2022-12-14T22:51:50.398Z,15.32
2022-12-14T22:54:19.241Z,15.77
2022-12-14T22:56:47.909Z,15.18
2022-12-14T22:59:22.540Z,15.65
2022-12-14T23:01:50.707Z,15.70
2022-12-14T23:04:18.409Z,16.27
2022-12-14T23:06:46.153Z,15.13
2022-12-14T23:09:32.716Z,15.10
2022-12-14T23:12:21.861Z,14.13
2022-12-14T23:15:08.628Z,15.00
2022-12-14T23:17:55.211Z,15.35
2022-12-14T23:20:41.528Z,14.20
2022-12-14T23:23:27.911Z,14.40
2022-12-14T23:26:14.614Z,14.25
2022-12-14T23:29:00.927Z,13.60
2022-12-14T23:31:47.013Z,13.93
2022-12-14T23:34:33.140Z,13.73
2022-12-14T23:37:20.625Z,14.50
2022-12-14T23:40:07.549Z,15.48
2022-12-14T23:42:54.055Z,16.80
2022-12-14T23:45:40.246Z,18.38
2022-12-14T23:48:26.469Z,18.95
2022-12-14T23:51:12.523Z,19.45
2022-12-14T23:53:58.849Z,20.02
2022-12-14T23:56:45.023Z,18.77
2022-12-14T23:59:32.671Z,19.80
